Time;durP1;ratioP1;P1;durP2;ratioP2;P2;SDS_P1;SDS_P2;PMS_P1;PMS_P2;Temp;Humidity;BMP_temperature;BMP_pressure;BME280_temperature;BME280_humidity;BME280_pressure;Samples;Min_cycle;Max_cycle;Signal;HPM_P1;HPM_P2
2020/12/04 00:01:26;;;;;;;51.90;25.80;;;1.80;99.90;;;;;;5063719;28;20245;-56
2020/12/04 00:03:52;;;;;;;56.67;28.63;;;1.40;99.90;;;;;;5062273;28;20196;-54
2020/12/04 00:06:19;;;;;;;47.70;27.67;;;1.40;99.90;;;;;;5079518;28;20388;-57
2020/12/04 00:08:46;;;;;;;69.18;29.90;;;1.40;99.90;;;;;;5072276;28;20547;-57
2020/12/04 00:11:12;;;;;;;59.83;28.92;;;1.40;99.90;;;;;;5061824;28;20214;-58
2020/12/04 00:13:39;;;;;;;54.33;31.58;;;1.30;99.90;;;;;;5060842;28;20204;-59
2020/12/04 00:16:05;;;;;;;47.70;25.90;;;1.30;99.90;;;;;;5079977;28;20203;-57
2020/12/04 00:18:32;;;;;;;49.97;26.15;;;1.30;99.90;;;;;;5065419;28;20502;-58
2020/12/04 00:20:58;;;;;;;49.25;28.67;;;1.40;99.90;;;;;;5066961;28;20363;-58
2020/12/04 00:23:25;;;;;;;49.55;27.50;;;1.30;99.90;;;;;;5070591;28;20202;-57
2020/12/04 00:25:51;;;;;;;53.83;28.33;;;1.50;99.90;;;;;;5063994;28;20201;-61
2020/12/04 00:28:18;;;;;;;49.08;24.63;;;1.40;99.90;;;;;;5070332;28;20207;-59
2020/12/04 00:30:45;;;;;;;52.65;28.25;;;1.40;99.90;;;;;;5080122;28;20274;-59
2020/12/04 00:33:11;;;;;;;47.92;24.27;;;1.40;99.90;;;;;;5063244;28;20203;-59
2020/12/04 00:35:38;;;;;;;46.45;23.20;;;1.50;99.90;;;;;;5066522;28;20223;-58
2020/12/04 00:38:04;;;;;;;44.45;25.67;;;1.40;99.90;;;;;;5071091;28;20222;-58
2020/12/04 00:40:31;;;;;;;90.85;48.13;;;1.40;99.90;;;;;;5073913;28;20203;-56
2020/12/04 00:42:58;;;;;;;45.42;25.65;;;1.60;99.90;;;;;;5066756;28;20208;-59
2020/12/04 00:45:24;;;;;;;39.05;22.30;;;1.50;99.90;;;;;;5067608;28;20448;-58
2020/12/04 00:47:51;;;;;;;46.42;25.67;;;1.70;99.90;;;;;;5070489;28;20280;-57
2020/12/04 00:50:18;;;;;;;37.35;22.02;;;1.70;99.90;;;;;;5060411;28;20196;-58
2020/12/04 00:52:45;;;;;;;37.55;18.90;;;1.80;99.90;;;;;;5065265;28;20207;-58
2020/12/04 00:55:11;;;;;;;42.90;23.13;;;1.70;99.90;;;;;;5063323;28;20203;-57
2020/12/04 00:57:38;;;;;;;33.75;20.08;;;1.80;99.90;;;;;;5062179;28;20283;-58
2020/12/04 01:00:05;;;;;;;33.55;21.73;;;1.90;99.90;;;;;;5063045;28;20513;-56
2020/12/04 01:02:32;;;;;;;41.35;24.55;;;1.80;99.90;;;;;;5068903;28;20211;-59
2020/12/04 01:04:59;;;;;;;37.60;22.17;;;1.80;99.90;;;;;;5067437;28;20200;-57
2020/12/04 01:07:25;;;;;;;36.10;20.38;;;1.90;99.90;;;;;;5059382;28;20506;-58
2020/12/04 01:09:51;;;;;;;30.85;20.08;;;2.40;99.90;;;;;;5068491;28;20207;-58
2020/12/04 01:12:18;;;;;;;31.63;18.83;;;1.90;99.90;;;;;;5060641;28;20231;-58
2020/12/04 01:14:45;;;;;;;33.10;19.70;;;2.00;99.90;;;;;;5069022;28;20537;-57
2020/12/04 01:17:11;;;;;;;40.40;21.83;;;2.10;99.90;;;;;;5068565;28;20235;-58
2020/12/04 01:19:38;;;;;;;32.92;16.60;;;2.20;99.90;;;;;;5064789;28;20432;-59
2020/12/04 01:22:06;;;;;;;30.55;19.50;;;1.90;99.90;;;;;;5066273;28;20204;-58
2020/12/04 01:24:32;;;;;;;31.30;19.00;;;2.10;99.90;;;;;;5062094;28;20230;-57
2020/12/04 01:26:59;;;;;;;38.70;20.48;;;2.00;99.90;;;;;;5065224;28;20207;-59
2020/12/04 01:29:25;;;;;;;31.83;18.23;;;2.10;99.90;;;;;;5065728;28;20516;-58
2020/12/04 01:31:52;;;;;;;38.88;20.98;;;2.10;99.90;;;;;;5075848;28;20200;-57
2020/12/04 01:34:18;;;;;;;40.75;19.90;;;2.30;99.90;;;;;;5067467;28;20515;-59
2020/12/04 01:36:48;;;;;;;31.90;19.15;;;2.20;99.90;;;;;;5067654;28;20238;-58
2020/12/04 01:39:14;;;;;;;31.55;18.98;;;2.20;99.90;;;;;;5057757;28;20200;-58
2020/12/04 01:41:41;;;;;;;30.38;17.40;;;2.40;99.90;;;;;;5066823;28;20208;-58
2020/12/04 01:44:07;;;;;;;38.58;21.38;;;2.30;99.90;;;;;;5064512;28;20244;-58
2020/12/04 01:46:34;;;;;;;38.72;20.90;;;2.30;99.90;;;;;;5073003;28;20303;-58
2020/12/04 01:49:01;;;;;;;38.00;19.65;;;2.30;99.90;;;;;;5072786;28;20208;-58
2020/12/04 01:51:29;;;;;;;41.40;19.75;;;2.30;99.90;;;;;;5065591;28;20208;-58
2020/12/04 01:53:56;;;;;;;38.40;19.70;;;2.30;99.90;;;;;;5058777;28;20200;-58
2020/12/04 01:56:23;;;;;;;33.45;18.42;;;2.30;99.90;;;;;;5059953;28;20228;-58
2020/12/04 01:58:49;;;;;;;34.97;20.25;;;2.10;99.90;;;;;;5075141;28;20211;-60
2020/12/04 02:01:19;;;;;;;39.70;22.30;;;2.20;99.90;;;;;;5074945;28;20205;-57
2020/12/04 02:03:46;;;;;;;34.10;20.67;;;2.00;99.90;;;;;;5072226;28;20217;-58
2020/12/04 02:06:21;;;;;;;38.78;22.95;;;2.10;99.90;;;;;;5062725;28;20211;-58
2020/12/04 02:09:03;;;;;;;33.72;18.20;;;2.10;99.90;;;;;;5068391;28;20211;-58
2020/12/04 02:11:32;;;;;;;35.70;21.60;;;2.10;99.90;;;;;;5077059;28;20198;-59
2020/12/04 02:14:00;;;;;;;34.70;19.35;;;2.10;99.90;;;;;;5066682;28;20528;-58
2020/12/04 02:16:27;;;;;;;33.85;21.05;;;2.10;99.90;;;;;;5076785;28;20219;-60
2020/12/04 02:18:53;;;;;;;36.90;20.10;;;2.30;99.90;;;;;;5070773;28;20254;-59
2020/12/04 02:21:20;;;;;;;36.55;20.10;;;2.30;99.90;;;;;;5080687;28;20210;-60
2020/12/04 02:23:51;;;;;;;33.70;18.92;;;2.30;99.90;;;;;;5066618;28;20219;-61
2020/12/04 02:26:20;;;;;;;36.20;21.40;;;2.10;99.90;;;;;;5073502;28;20204;-60
2020/12/04 02:28:47;;;;;;;33.83;19.60;;;2.10;99.90;;;;;;5073801;28;20446;-59
2020/12/04 02:31:14;;;;;;;38.03;23.67;;;2.10;99.90;;;;;;5063989;28;20200;-59
2020/12/04 02:33:41;;;;;;;42.30;23.65;;;2.30;99.90;;;;;;5078483;28;20449;-60
2020/12/04 02:36:09;;;;;;;31.17;18.15;;;2.20;99.90;;;;;;5077442;28;20224;-60
2020/12/04 02:38:36;;;;;;;41.65;22.98;;;2.30;99.90;;;;;;5063987;28;20290;-60
2020/12/04 02:41:06;;;;;;;35.58;21.17;;;2.30;99.90;;;;;;5064728;28;20275;-60
2020/12/04 02:43:33;;;;;;;38.42;22.05;;;2.30;99.90;;;;;;5062287;28;20220;-59
2020/12/04 02:46:00;;;;;;;34.40;18.83;;;2.40;99.90;;;;;;5079264;28;20383;-59
2020/12/04 02:48:27;;;;;;;28.98;17.40;;;2.60;99.90;;;;;;5065306;28;20258;-60
2020/12/04 02:50:54;;;;;;;25.77;17.20;;;2.40;99.90;;;;;;5062633;28;20219;-60
2020/12/04 02:53:20;;;;;;;34.42;19.75;;;2.60;99.90;;;;;;5063671;28;20203;-62
2020/12/04 02:55:47;;;;;;;30.13;18.77;;;2.50;99.90;;;;;;5070989;28;20212;-64
2020/12/04 02:58:14;;;;;;;28.98;17.10;;;2.40;99.90;;;;;;5075063;28;20239;-60
2020/12/04 03:00:41;;;;;;;27.10;17.85;;;2.40;99.90;;;;;;5073340;28;20208;-59
2020/12/04 03:03:07;;;;;;;36.35;19.85;;;2.50;99.90;;;;;;5064049;28;20383;-59
2020/12/04 03:05:34;;;;;;;42.92;18.35;;;2.50;99.90;;;;;;5062542;28;20203;-60
2020/12/04 03:08:00;;;;;;;23.98;15.23;;;2.60;99.90;;;;;;5069137;28;20517;-59
2020/12/04 03:10:27;;;;;;;31.95;19.27;;;2.60;99.90;;;;;;5074923;28;20567;-59
2020/12/04 03:12:53;;;;;;;17.83;14.32;;;2.60;99.90;;;;;;5073739;28;20493;-59
2020/12/04 03:15:20;;;;;;;24.45;15.35;;;2.50;99.90;;;;;;5066814;28;20196;-59
2020/12/04 03:17:46;;;;;;;24.13;14.93;;;2.50;99.90;;;;;;5067368;28;20227;-62
2020/12/04 03:20:13;;;;;;;25.95;16.20;;;2.60;99.90;;;;;;5068589;28;20203;-60
2020/12/04 03:22:39;;;;;;;19.10;12.75;;;2.60;99.90;;;;;;5071749;28;20397;-60
2020/12/04 03:25:06;;;;;;;22.10;14.45;;;2.50;99.90;;;;;;5070372;28;20554;-60
2020/12/04 03:27:33;;;;;;;25.70;13.70;;;2.30;99.90;;;;;;5074634;28;20209;-60
2020/12/04 03:29:59;;;;;;;29.15;15.80;;;2.20;99.90;;;;;;5068471;28;20208;-60
2020/12/04 03:32:26;;;;;;;22.40;15.00;;;2.20;99.90;;;;;;5072419;28;20195;-61
2020/12/04 03:34:52;;;;;;;20.33;14.27;;;2.40;99.90;;;;;;5063685;28;20390;-59
2020/12/04 03:37:21;;;;;;;22.92;15.52;;;2.30;99.90;;;;;;5061730;28;20228;-62
2020/12/04 03:39:48;;;;;;;18.90;14.60;;;2.20;99.90;;;;;;5068684;28;20393;-61
2020/12/04 03:42:14;;;;;;;21.35;16.02;;;2.50;99.90;;;;;;5071321;28;20195;-59
2020/12/04 03:44:41;;;;;;;26.60;12.98;;;2.40;99.90;;;;;;5076045;28;20202;-60
2020/12/04 03:47:07;;;;;;;23.30;13.15;;;2.40;99.90;;;;;;5074119;28;20242;-60
2020/12/04 03:49:34;;;;;;;22.35;16.00;;;2.30;99.90;;;;;;5069447;28;20518;-59
2020/12/04 03:52:01;;;;;;;19.40;13.07;;;2.50;99.90;;;;;;5069362;28;20219;-60
2020/12/04 03:54:27;;;;;;;32.53;16.40;;;2.50;99.90;;;;;;5066487;28;20208;-59
2020/12/04 03:56:54;;;;;;;21.17;13.35;;;2.40;99.90;;;;;;5061257;28;20248;-60
2020/12/04 03:59:21;;;;;;;16.88;14.15;;;2.50;99.90;;;;;;5061946;28;20203;-61
2020/12/04 04:01:47;;;;;;;21.30;12.18;;;2.40;99.90;;;;;;5061532;28;20203;-60
2020/12/04 04:04:14;;;;;;;28.42;14.00;;;2.50;99.90;;;;;;5065452;28;20242;-59
2020/12/04 04:06:40;;;;;;;17.00;11.95;;;2.60;99.90;;;;;;5065587;28;20204;-59
2020/12/04 04:09:07;;;;;;;24.75;14.45;;;2.50;99.90;;;;;;5074156;28;20208;-59
2020/12/04 04:11:33;;;;;;;18.25;10.50;;;2.70;99.90;;;;;;5073617;28;20204;-59
2020/12/04 04:14:00;;;;;;;19.65;13.80;;;2.60;99.90;;;;;;5073120;28;20200;-60
2020/12/04 04:16:26;;;;;;;22.50;15.15;;;2.70;99.90;;;;;;5067444;28;20208;-58
2020/12/04 04:18:53;;;;;;;18.75;12.63;;;2.70;99.90;;;;;;5072074;28;20199;-59
2020/12/04 04:21:19;;;;;;;26.05;14.13;;;2.70;99.90;;;;;;5061135;28;20518;-59
2020/12/04 04:23:46;;;;;;;19.92;10.05;;;2.70;99.90;;;;;;5063686;28;20200;-60
2020/12/04 04:26:12;;;;;;;16.08;10.90;;;2.80;99.90;;;;;;5057625;28;20486;-60
2020/12/04 04:28:40;;;;;;;18.67;11.68;;;2.90;99.90;;;;;;5064238;28;20220;-59
2020/12/04 04:31:08;;;;;;;32.67;13.65;;;3.10;99.90;;;;;;5062873;28;20231;-59
2020/12/04 04:33:35;;;;;;;14.45;10.95;;;3.00;99.90;;;;;;5068345;28;20274;-60
2020/12/04 04:36:02;;;;;;;16.63;12.52;;;3.70;99.90;;;;;;5075194;28;20231;-58
2020/12/04 04:38:28;;;;;;;21.10;14.45;;;3.20;99.90;;;;;;5060194;28;20220;-59
2020/12/04 04:40:57;;;;;;;24.75;12.55;;;3.20;99.90;;;;;;5064908;28;20197;-59
2020/12/04 04:43:25;;;;;;;24.90;15.95;;;3.40;99.90;;;;;;5070003;28;20213;-60
2020/12/04 04:45:53;;;;;;;15.98;11.80;;;3.30;99.90;;;;;;5069389;28;20315;-60
2020/12/04 04:48:25;;;;;;;23.90;13.65;;;3.20;99.90;;;;;;5067711;28;20231;-59
2020/12/04 04:51:01;;;;;;;19.05;12.40;;;3.40;99.90;;;;;;5070710;28;20212;-60
2020/12/04 04:53:29;;;;;;;20.27;13.18;;;3.30;99.90;;;;;;5068099;28;20205;-59
2020/12/04 04:55:56;;;;;;;18.25;13.23;;;3.20;99.90;;;;;;5059886;28;20246;-59
2020/12/04 04:58:22;;;;;;;23.75;13.88;;;3.40;99.90;;;;;;5069942;28;20236;-58
2020/12/04 05:00:49;;;;;;;25.80;18.10;;;3.30;99.90;;;;;;5059108;28;20521;-59
2020/12/04 05:03:15;;;;;;;19.58;14.10;;;3.20;99.90;;;;;;5068058;28;20200;-60
2020/12/04 05:05:44;;;;;;;33.60;15.82;;;3.10;99.90;;;;;;5065160;28;20495;-60
2020/12/04 05:08:15;;;;;;;23.42;15.05;;;3.00;99.90;;;;;;5068835;28;20219;-60
2020/12/04 05:10:44;;;;;;;32.88;19.67;;;3.00;99.90;;;;;;5069838;28;20205;-60
2020/12/04 05:13:11;;;;;;;37.75;18.70;;;2.90;99.90;;;;;;5064692;28;20212;-60
2020/12/04 05:15:39;;;;;;;20.90;15.07;;;2.90;99.90;;;;;;5073364;28;20268;-59
2020/12/04 05:18:17;;;;;;;30.08;18.02;;;3.20;99.90;;;;;;5065338;28;20227;-59
2020/12/04 05:20:51;;;;;;;22.05;12.85;;;3.10;99.90;;;;;;5065766;28;20207;-60
2020/12/04 05:23:19;;;;;;;25.90;15.80;;;3.10;99.90;;;;;;5060305;28;20196;-60
2020/12/04 05:25:47;;;;;;;26.55;16.52;;;3.20;99.90;;;;;;5061289;28;20502;-59
2020/12/04 05:28:15;;;;;;;35.60;17.60;;;3.30;99.90;;;;;;5070570;28;20204;-59
2020/12/04 05:30:45;;;;;;;36.67;19.30;;;3.20;99.90;;;;;;5070436;28;20228;-59
2020/12/04 05:33:12;;;;;;;28.50;17.35;;;3.10;99.90;;;;;;5062391;28;20205;-61
2020/12/04 05:35:40;;;;;;;32.45;19.80;;;3.10;99.90;;;;;;5065662;28;20224;-59
2020/12/04 05:38:14;;;;;;;34.85;21.27;;;3.10;99.90;;;;;;5063155;28;20228;-60
2020/12/04 05:40:46;;;;;;;27.83;19.20;;;3.30;99.90;;;;;;5059500;28;20213;-60
2020/12/04 05:43:14;;;;;;;37.97;20.80;;;3.30;99.90;;;;;;5062967;28;20211;-60
2020/12/04 05:45:41;;;;;;;27.45;17.98;;;3.20;99.90;;;;;;5076629;28;20419;-59
2020/12/04 05:48:13;;;;;;;36.55;20.08;;;3.30;99.90;;;;;;5068522;28;20500;-59
2020/12/04 05:50:40;;;;;;;31.58;19.38;;;3.30;99.90;;;;;;5068969;28;20210;-58
2020/12/04 05:53:08;;;;;;;32.22;19.05;;;3.30;99.90;;;;;;5066166;28;20197;-59
2020/12/04 05:55:36;;;;;;;33.55;19.27;;;3.20;99.90;;;;;;5074721;28;20205;-59
2020/12/04 05:58:05;;;;;;;45.60;19.08;;;3.40;99.90;;;;;;5068864;28;20259;-59
2020/12/04 06:00:33;;;;;;;33.40;19.67;;;3.30;99.90;;;;;;5061112;28;20210;-60
2020/12/04 06:03:04;;;;;;;41.45;19.08;;;3.40;99.90;;;;;;5067435;28;20209;-60
2020/12/04 06:05:32;;;;;;;32.70;16.73;;;3.40;99.90;;;;;;5078815;28;20371;-59
2020/12/04 06:08:06;;;;;;;35.13;20.45;;;3.40;99.90;;;;;;5074147;28;20600;-59
2020/12/04 06:10:34;;;;;;;33.15;17.67;;;3.40;99.90;;;;;;5070352;28;20210;-60
2020/12/04 06:13:02;;;;;;;33.15;21.00;;;3.40;99.90;;;;;;5079017;28;20231;-60
2020/12/04 06:15:31;;;;;;;38.58;25.58;;;3.40;99.90;;;;;;5062193;28;20210;-60
2020/12/04 06:18:08;;;;;;;30.70;22.00;;;3.50;99.90;;;;;;5067618;28;20541;-58
2020/12/04 06:20:46;;;;;;;30.15;19.38;;;3.50;99.90;;;;;;5061422;28;20206;-60
2020/12/04 06:23:15;;;;;;;46.38;22.23;;;3.60;99.90;;;;;;5059436;28;20210;-59
2020/12/04 06:25:56;;;;;;;31.17;23.50;;;3.50;99.90;;;;;;5059341;28;20232;-60
2020/12/04 06:28:32;;;;;;;34.65;18.90;;;3.50;99.90;;;;;;5059094;28;20213;-58
2020/12/04 06:31:14;;;;;;;35.55;23.10;;;3.50;99.90;;;;;;5062929;28;20201;-58
2020/12/04 06:33:49;;;;;;;33.60;18.65;;;3.40;99.90;;;;;;5058439;28;20542;-58
2020/12/04 06:36:31;;;;;;;31.58;20.73;;;3.50;99.90;;;;;;5059276;28;20257;-59
2020/12/04 06:38:58;;;;;;;30.50;19.13;;;3.50;99.90;;;;;;5058371;28;20243;-59
2020/12/04 06:41:43;;;;;;;43.22;22.30;;;3.60;99.90;;;;;;5057971;28;20213;-60
2020/12/04 06:44:20;;;;;;;37.42;20.65;;;3.60;99.90;;;;;;5059147;28;20457;-60
2020/12/04 06:46:49;;;;;;;36.72;21.50;;;3.60;99.90;;;;;;5063795;28;20615;-61
2020/12/04 06:49:23;;;;;;;41.55;19.70;;;3.60;99.90;;;;;;5066461;28;20542;-60
2020/12/04 06:52:00;;;;;;;45.33;23.13;;;3.70;99.90;;;;;;5060862;28;20238;-59
2020/12/04 06:54:28;;;;;;;41.38;21.50;;;3.60;99.90;;;;;;5058599;28;20290;-60
2020/12/04 06:56:56;;;;;;;33.33;21.73;;;3.40;99.90;;;;;;5063559;28;20250;-58
2020/12/04 06:59:27;;;;;;;39.13;21.30;;;3.70;99.90;;;;;;5066990;28;20258;-60
2020/12/04 07:02:06;;;;;;;44.50;23.33;;;3.70;99.90;;;;;;5064452;28;20499;-58
2020/12/04 07:04:36;;;;;;;42.58;21.73;;;3.60;99.90;;;;;;5061696;28;20257;-59
2020/12/04 07:07:08;;;;;;;39.63;22.00;;;3.60;99.90;;;;;;5076739;28;20215;-60
2020/12/04 07:09:35;;;;;;;37.08;22.05;;;3.40;99.90;;;;;;5062417;28;20209;-60
2020/12/04 07:12:03;;;;;;;35.75;21.63;;;3.60;99.90;;;;;;5059358;28;20487;-59
2020/12/04 07:14:30;;;;;;;42.17;24.00;;;3.50;99.90;;;;;;5064702;28;20496;-59
2020/12/04 07:16:57;;;;;;;35.90;19.95;;;3.50;99.90;;;;;;5044210;28;20249;-59
2020/12/04 07:19:26;;;;;;;41.90;23.00;;;3.50;99.90;;;;;;5004053;28;20206;-59
2020/12/04 07:21:53;;;;;;;46.63;22.13;;;3.40;99.90;;;;;;5003493;28;20398;-60
2020/12/04 07:24:20;;;;;;;40.78;22.67;;;3.20;99.90;;;;;;5009901;28;20207;-59
2020/12/04 07:26:52;;;;;;;48.97;24.90;;;3.40;99.90;;;;;;5013608;28;20532;-60
2020/12/04 07:29:18;;;;;;;39.28;22.92;;;3.20;99.90;;;;;;5003768;28;20371;-60
2020/12/04 07:31:47;;;;;;;35.03;21.55;;;3.00;99.90;;;;;;5002791;28;20206;-60
2020/12/04 07:34:23;;;;;;;33.20;21.25;;;3.00;99.90;;;;;;5002538;28;20218;-59
2020/12/04 07:36:52;;;;;;;34.38;20.08;;;3.10;99.90;;;;;;5004986;28;20308;-60
2020/12/04 07:39:39;;;;;;;39.28;25.48;;;3.20;99.90;;;;;;5015732;28;20281;-59
2020/12/04 07:42:08;;;;;;;32.92;20.85;;;3.10;99.90;;;;;;5012137;28;20369;-59
2020/12/04 07:44:41;;;;;;;49.10;28.27;;;3.20;99.90;;;;;;5007177;28;20228;-59
2020/12/04 07:47:15;;;;;;;49.28;27.38;;;3.20;99.90;;;;;;5002131;28;20238;-56
2020/12/04 07:49:54;;;;;;;46.92;25.13;;;3.30;99.90;;;;;;5003507;28;20277;-58
2020/12/04 07:52:25;;;;;;;43.40;25.40;;;3.20;99.90;;;;;;5002690;28;20228;-58
2020/12/04 07:54:59;;;;;;;40.85;25.90;;;3.20;99.90;;;;;;5002159;28;20211;-59
2020/12/04 07:57:43;;;;;;;45.10;24.58;;;3.30;99.90;;;;;;5000374;28;20238;-61
2020/12/04 08:00:13;;;;;;;45.45;26.08;;;3.20;99.90;;;;;;5002000;28;20489;-59
2020/12/04 08:02:40;;;;;;;35.05;17.85;;;3.30;99.90;;;;;;4992508;28;20234;-58
2020/12/04 08:05:07;;;;;;;36.97;21.60;;;3.30;99.90;;;;;;5001944;28;20295;-59
2020/12/04 08:07:34;;;;;;;47.05;23.50;;;3.50;99.90;;;;;;5012505;28;20223;-58
2020/12/04 08:10:01;;;;;;;38.53;22.17;;;3.60;99.90;;;;;;5005954;28;20215;-58
2020/12/04 08:12:30;;;;;;;44.65;22.40;;;3.80;99.90;;;;;;5006870;28;20221;-60
2020/12/04 08:14:59;;;;;;;29.20;19.95;;;3.80;99.90;;;;;;5010422;28;20447;-58
2020/12/04 08:17:28;;;;;;;43.92;22.73;;;3.80;99.90;;;;;;4992955;28;20350;-60
2020/12/04 08:19:56;;;;;;;32.17;17.92;;;3.80;99.90;;;;;;4995620;28;20189;-60
2020/12/04 08:22:30;;;;;;;34.03;20.33;;;3.70;99.90;;;;;;4997025;28;20523;-58
2020/12/04 08:25:09;;;;;;;32.60;21.05;;;3.90;99.90;;;;;;4985343;28;20270;-60
2020/12/04 08:27:43;;;;;;;26.23;18.92;;;3.90;99.90;;;;;;4999573;28;20257;-59
2020/12/04 08:30:21;;;;;;;28.70;18.35;;;4.00;99.90;;;;;;4994718;28;20506;-59
2020/12/04 08:32:53;;;;;;;23.02;16.08;;;4.10;99.90;;;;;;5008970;28;20216;-59
2020/12/04 08:35:25;;;;;;;31.30;15.82;;;4.20;99.90;;;;;;5000453;28;20558;-60
2020/12/04 08:37:53;;;;;;;54.47;26.17;;;4.20;99.90;;;;;;5000985;28;20210;-60
2020/12/04 08:40:32;;;;;;;51.53;23.15;;;4.10;99.90;;;;;;4996188;28;20197;-61
2020/12/04 08:43:19;;;;;;;25.45;14.30;;;4.00;99.90;;;;;;4999623;28;20218;-58
2020/12/04 08:45:48;;;;;;;22.30;16.58;;;4.00;99.90;;;;;;5000269;28;20202;-59
2020/12/04 08:48:17;;;;;;;27.10;17.70;;;4.20;99.90;;;;;;5003958;28;20600;-59
2020/12/04 08:50:50;;;;;;;26.65;16.95;;;4.20;99.90;;;;;;5010033;28;20222;-59
2020/12/04 08:53:19;;;;;;;25.75;17.30;;;4.30;99.90;;;;;;4998154;28;20477;-59
2020/12/04 08:55:47;;;;;;;35.88;19.55;;;4.40;99.90;;;;;;5000905;28;20202;-59
2020/12/04 08:58:16;;;;;;;31.50;17.42;;;4.40;99.90;;;;;;5016138;28;20229;-59
2020/12/04 09:00:44;;;;;;;27.42;15.45;;;4.50;99.90;;;;;;5003268;28;20212;-60
2020/12/04 09:03:11;;;;;;;26.30;15.15;;;4.60;99.90;;;;;;5000895;28;20210;-60
2020/12/04 09:05:37;;;;;;;28.52;15.63;;;4.50;99.90;;;;;;5002543;28;20211;-59
2020/12/04 09:08:06;;;;;;;25.92;15.68;;;4.60;99.90;;;;;;5006755;28;20245;-59
2020/12/04 09:10:34;;;;;;;27.23;16.33;;;4.80;99.90;;;;;;5007130;28;20203;-59
2020/12/04 09:13:01;;;;;;;19.35;13.02;;;4.70;99.90;;;;;;5014814;28;20238;-61
2020/12/04 09:15:29;;;;;;;21.20;13.45;;;4.50;99.90;;;;;;5009002;28;20518;-61
2020/12/04 09:17:56;;;;;;;22.00;14.32;;;4.50;99.90;;;;;;5000289;28;20212;-61
2020/12/04 09:20:26;;;;;;;20.55;13.80;;;4.40;99.90;;;;;;5002973;28;20207;-61
2020/12/04 09:22:53;;;;;;;24.45;14.80;;;4.60;99.90;;;;;;5013495;28;20211;-60
2020/12/04 09:25:21;;;;;;;23.25;13.48;;;4.70;99.90;;;;;;5000388;28;20315;-59
2020/12/04 09:27:48;;;;;;;18.83;12.15;;;4.90;99.90;;;;;;5002916;28;20232;-61
2020/12/04 09:30:17;;;;;;;19.23;12.57;;;5.10;99.90;;;;;;5012127;28;20211;-60
2020/12/04 09:32:45;;;;;;;17.45;11.60;;;5.10;99.90;;;;;;4994570;28;20202;-59
2020/12/04 09:35:13;;;;;;;14.57;10.80;;;5.40;99.90;;;;;;5016941;28;20439;-61
2020/12/04 09:37:40;;;;;;;16.40;11.40;;;5.40;99.90;;;;;;5014071;28;20204;-60
2020/12/04 09:40:16;;;;;;;16.27;11.85;;;5.30;99.90;;;;;;5010631;28;20210;-59
2020/12/04 09:42:43;;;;;;;15.70;11.35;;;5.50;99.90;;;;;;5003119;28;20529;-62
2020/12/04 09:45:12;;;;;;;18.00;12.55;;;5.70;99.90;;;;;;4993287;28;20202;-60
2020/12/04 09:47:39;;;;;;;16.63;11.32;;;5.80;99.90;;;;;;4998544;28;20254;-60
2020/12/04 09:50:11;;;;;;;14.70;11.38;;;5.90;99.90;;;;;;5003306;28;20468;-61
2020/12/04 09:52:39;;;;;;;13.32;9.80;;;5.90;99.90;;;;;;5011802;28;20241;-62
2020/12/04 09:55:08;;;;;;;17.17;9.90;;;6.00;99.90;;;;;;5007596;28;20350;-61
2020/12/04 09:57:35;;;;;;;14.45;8.85;;;5.90;99.90;;;;;;4999536;28;20252;-61
2020/12/04 10:00:06;;;;;;;15.35;8.32;;;5.90;99.90;;;;;;4999135;28;20212;-61
2020/12/04 10:02:33;;;;;;;16.48;10.80;;;5.80;99.90;;;;;;4998676;28;20264;-61
2020/12/04 10:04:59;;;;;;;16.63;9.38;;;6.00;99.90;;;;;;5006880;28;20205;-60
2020/12/04 10:07:26;;;;;;;14.20;8.88;;;6.10;99.90;;;;;;4999177;28;20331;-62
2020/12/04 10:09:53;;;;;;;13.60;8.93;;;6.10;99.90;;;;;;5004986;28;20259;-60
2020/12/04 10:12:20;;;;;;;14.43;9.90;;;6.10;99.90;;;;;;5007260;28;20538;-60
2020/12/04 10:14:47;;;;;;;12.25;8.80;;;6.30;99.90;;;;;;5003413;28;20276;-61
2020/12/04 10:17:13;;;;;;;14.02;9.73;;;6.20;99.90;;;;;;5015569;28;20243;-61
2020/12/04 10:19:40;;;;;;;15.80;8.35;;;6.30;99.90;;;;;;5007828;28;20206;-61
2020/12/04 10:22:06;;;;;;;11.93;8.38;;;6.40;99.90;;;;;;5001173;28;20212;-61
2020/12/04 10:24:33;;;;;;;9.85;6.50;;;6.30;99.90;;;;;;5002375;28;20260;-61
2020/12/04 10:27:00;;;;;;;13.38;8.60;;;6.40;99.90;;;;;;4999130;28;20236;-61
2020/12/04 10:29:26;;;;;;;16.48;9.27;;;6.40;99.90;;;;;;4999957;28;20205;-61
2020/12/04 10:31:53;;;;;;;14.15;10.52;;;6.40;99.90;;;;;;5001135;28;20260;-59
2020/12/04 10:34:19;;;;;;;12.27;8.55;;;6.40;99.90;;;;;;5006036;28;20204;-60
2020/12/04 10:36:46;;;;;;;11.13;8.18;;;6.40;99.90;;;;;;5006250;28;20411;-60
2020/12/04 10:39:14;;;;;;;11.40;7.70;;;6.40;99.90;;;;;;5004901;28;20213;-61
2020/12/04 10:41:43;;;;;;;22.25;10.38;;;6.50;99.90;;;;;;5008128;28;20208;-62
2020/12/04 10:44:10;;;;;;;16.58;7.65;;;6.60;99.90;;;;;;5011721;28;20212;-60
2020/12/04 10:46:38;;;;;;;25.35;11.88;;;6.60;99.90;;;;;;5003353;28;20458;-61
2020/12/04 10:49:06;;;;;;;12.85;8.05;;;6.50;99.90;;;;;;4995932;28;20284;-61
2020/12/04 10:51:34;;;;;;;15.88;9.07;;;6.60;99.90;;;;;;5005358;28;20362;-62
2020/12/04 10:54:02;;;;;;;16.20;9.10;;;6.60;99.90;;;;;;5010645;28;20233;-61
2020/12/04 10:56:28;;;;;;;12.50;7.78;;;6.50;99.90;;;;;;5011756;28;20205;-63
2020/12/04 10:58:55;;;;;;;16.83;9.20;;;6.50;99.90;;;;;;5013483;28;20300;-61
2020/12/04 11:06:23;;;;;;;13.35;6.28;;;6.50;99.90;;;;;;5002154;28;20277;-60
2020/12/04 11:08:50;;;;;;;11.70;7.18;;;6.50;99.90;;;;;;5011115;28;20244;-61
2020/12/04 11:11:20;;;;;;;14.05;9.48;;;6.50;99.90;;;;;;5003895;28;20391;-60
2020/12/04 11:13:47;;;;;;;15.27;7.85;;;6.50;99.90;;;;;;5002208;28;20225;-61
2020/12/04 11:16:14;;;;;;;9.55;7.00;;;6.60;99.90;;;;;;5007465;28;20228;-61
2020/12/04 11:18:41;;;;;;;13.02;7.95;;;6.70;99.90;;;;;;5003890;28;20309;-60
2020/12/04 11:21:08;;;;;;;11.98;9.10;;;6.70;99.90;;;;;;5004297;28;20253;-60
2020/12/04 11:23:36;;;;;;;11.27;7.95;;;6.70;99.90;;;;;;5008427;28;20204;-60
2020/12/04 11:26:03;;;;;;;12.25;7.47;;;6.60;99.90;;;;;;5005545;28;20225;-60
2020/12/04 11:28:34;;;;;;;12.82;8.50;;;6.50;99.90;;;;;;4999916;28;20296;-60
2020/12/04 11:31:01;;;;;;;13.55;7.80;;;6.70;99.90;;;;;;5003243;28;20332;-60
2020/12/04 11:33:28;;;;;;;11.48;7.80;;;6.70;99.90;;;;;;5006280;28;20213;-60
2020/12/04 11:35:56;;;;;;;10.70;8.05;;;6.80;99.90;;;;;;5005909;28;20239;-61
2020/12/04 11:38:23;;;;;;;11.52;9.27;;;6.80;99.90;;;;;;5002573;28;20209;-60
2020/12/04 11:40:50;;;;;;;11.40;7.80;;;6.70;99.90;;;;;;5012911;28;20220;-62
2020/12/04 11:43:16;;;;;;;10.07;7.10;;;6.90;99.90;;;;;;5005034;28;20395;-61
2020/12/04 11:45:43;;;;;;;15.82;8.27;;;6.90;99.90;;;;;;5009398;28;20224;-61
2020/12/04 11:48:10;;;;;;;11.73;8.15;;;6.90;99.90;;;;;;5002482;28;20249;-61
2020/12/04 11:50:37;;;;;;;17.80;10.55;;;6.90;99.90;;;;;;5006439;28;20505;-61
2020/12/04 11:53:03;;;;;;;15.93;8.00;;;7.00;99.90;;;;;;4998262;28;20404;-60
2020/12/04 11:55:30;;;;;;;12.90;8.82;;;6.90;99.90;;;;;;5010458;28;20201;-60
2020/12/04 11:57:57;;;;;;;14.18;8.45;;;7.00;99.90;;;;;;5001836;28;20459;-61
2020/12/04 12:00:25;;;;;;;8.80;7.20;;;7.10;99.90;;;;;;5002991;28;20205;-60
2020/12/04 12:02:54;;;;;;;13.63;8.05;;;6.90;99.90;;;;;;5006268;28;20208;-60
2020/12/04 12:05:21;;;;;;;13.23;8.77;;;6.90;99.90;;;;;;5012770;28;20208;-61
2020/12/04 12:07:48;;;;;;;12.30;7.82;;;7.00;99.90;;;;;;5015558;28;20241;-61
2020/12/04 12:10:14;;;;;;;8.82;7.10;;;7.10;99.90;;;;;;5014117;28;20513;-60
2020/12/04 12:12:41;;;;;;;12.63;8.93;;;7.00;99.90;;;;;;5007012;28;20285;-61
2020/12/04 12:15:09;;;;;;;9.70;6.32;;;6.90;99.90;;;;;;5002402;28;20206;-61
2020/12/04 12:17:35;;;;;;;10.45;7.80;;;6.90;99.90;;;;;;5008009;28;20219;-59
2020/12/04 12:20:03;;;;;;;10.43;6.90;;;6.80;99.90;;;;;;5001220;28;20289;-61
2020/12/04 12:22:30;;;;;;;14.82;8.75;;;6.70;99.90;;;;;;5008157;28;20229;-60
2020/12/04 12:24:57;;;;;;;13.60;8.43;;;6.90;99.90;;;;;;5000944;28;20210;-61
2020/12/04 12:27:23;;;;;;;12.05;7.30;;;7.00;99.90;;;;;;5000846;28;20201;-60
2020/12/04 12:29:50;;;;;;;9.05;6.60;;;6.90;99.90;;;;;;5002768;28;20209;-59
2020/12/04 12:32:17;;;;;;;10.93;8.70;;;6.90;99.90;;;;;;5009402;28;20210;-61
2020/12/04 12:37:32;;;;;;;10.18;8.13;;;6.80;99.90;;;;;;5001506;28;20526;-61
2020/12/04 12:40:01;;;;;;;11.25;8.20;;;6.50;99.90;;;;;;5001198;28;20213;-61
2020/12/04 12:42:27;;;;;;;11.75;6.30;;;6.50;99.90;;;;;;5000578;28;20213;-60
2020/12/04 12:44:54;;;;;;;14.10;8.68;;;6.60;99.90;;;;;;5000850;28;20534;-60
2020/12/04 12:47:20;;;;;;;14.18;9.07;;;6.40;99.90;;;;;;5001248;28;20259;-61
2020/12/04 12:49:47;;;;;;;8.98;6.78;;;6.40;99.90;;;;;;5000671;28;20220;-61
2020/12/04 12:52:14;;;;;;;15.50;9.85;;;6.40;99.90;;;;;;5001974;28;20520;-61